Lowell, Illinois
Current Conditions -  °F | °C
As of 4:15 PM on Monday 20 Oct 2014 (Local Time) from KVYS Reporting Station
Broken Clouds Broken Clouds  
Wind Chill: 65°   Ceiling: 6500
Heat Index: 65°   Visibility: 7mi
Dew Point: 43°   Wind: 16mph
Humidity: 45%   Direction: 330°NNW
Pressure: 29.91"   Gusts: 22mph
Location:  41.2206°N, 89.0553°W
Report Text: KVYS 202115Z AUTO 33014G19KT 7SM SCT050 BKN065 18/06 A2991 RMK AO2 T01810059
Loading
Personal Weather Stations






























Interactive Weather Map
Tropical Storm Tracking
New forecast layout! Learn more

10-Day Weather Forecast

Advertisements
Track Severe Weather on mobile